sensor_id;sensor_type;location;lat;lon;timestamp;pressure;altitude;pressure_sealevel;temperature;humidity
47753;BME280;2038;51.728;6.674;2023-02-23T00:01:50;100563.31;;;10.72;100.00
47753;BME280;2038;51.728;6.674;2023-02-23T00:04:16;100554.16;;;10.76;100.00
47753;BME280;2038;51.728;6.674;2023-02-23T00:06:43;100553.72;;;10.68;100.00
47753;BME280;2038;51.728;6.674;2023-02-23T00:09:10;100559.78;;;10.70;100.00
47753;BME280;2038;51.728;6.674;2023-02-23T00:11:40;100558.44;;;10.62;100.00
47753;BME280;2038;51.728;6.674;2023-02-23T00:14:06;100558.31;;;10.74;100.00
47753;BME280;2038;51.728;6.674;2023-02-23T00:16:33;100559.78;;;10.70;100.00
47753;BME280;2038;51.728;6.674;2023-02-23T00:18:59;100561.47;;;10.70;100.00
47753;BME280;2038;51.728;6.674;2023-02-23T00:21:29;100554.88;;;10.73;100.00
47753;BME280;2038;51.728;6.674;2023-02-23T00:24:05;100560.69;;;10.71;100.00
47753;BME280;2038;51.728;6.674;2023-02-23T00:26:35;100558.03;;;10.69;100.00
47753;BME280;2038;51.728;6.674;2023-02-23T00:29:05;100558.81;;;10.68;100.00
47753;BME280;2038;51.728;6.674;2023-02-23T00:31:33;100550.50;;;10.71;100.00
47753;BME280;2038;51.728;6.674;2023-02-23T00:34:01;100554.88;;;10.73;100.00
47753;BME280;2038;51.728;6.674;2023-02-23T00:36:33;100553.06;;;10.86;100.00
47753;BME280;2038;51.728;6.674;2023-02-23T00:39:04;100557.56;;;10.90;100.00
47753;BME280;2038;51.728;6.674;2023-02-23T00:42:03;100545.59;;;10.89;100.00
47753;BME280;2038;51.728;6.674;2023-02-23T00:44:31;100545.44;;;10.86;100.00
47753;BME280;2038;51.728;6.674;2023-02-23T00:46:59;100537.59;;;10.83;100.00
47753;BME280;2038;51.728;6.674;2023-02-23T00:49:26;100548.47;;;10.80;100.00
47753;BME280;2038;51.728;6.674;2023-02-23T00:51:53;100551.16;;;10.96;100.00
47753;BME280;2038;51.728;6.674;2023-02-23T00:54:20;100541.38;;;10.89;100.00
47753;BME280;2038;51.728;6.674;2023-02-23T00:56:48;100546.81;;;10.80;100.00
47753;BME280;2038;51.728;6.674;2023-02-23T00:59:15;100554.63;;;10.84;100.00
47753;BME280;2038;51.728;6.674;2023-02-23T01:01:42;100554.63;;;10.84;100.00
47753;BME280;2038;51.728;6.674;2023-02-23T01:04:11;100556.34;;;10.83;100.00
47753;BME280;2038;51.728;6.674;2023-02-23T01:06:39;100553.56;;;10.80;100.00
47753;BME280;2038;51.728;6.674;2023-02-23T01:09:13;100562.03;;;10.79;100.00
47753;BME280;2038;51.728;6.674;2023-02-23T01:11:46;100553.50;;;10.78;100.00
47753;BME280;2038;51.728;6.674;2023-02-23T01:14:12;100559.28;;;10.76;100.00
47753;BME280;2038;51.728;6.674;2023-02-23T01:16:39;100557.19;;;10.84;100.00
47753;BME280;2038;51.728;6.674;2023-02-23T01:19:05;100553.41;;;10.77;100.00
47753;BME280;2038;51.728;6.674;2023-02-23T01:21:39;100555.66;;;10.72;100.00
47753;BME280;2038;51.728;6.674;2023-02-23T01:24:07;100564.47;;;10.77;100.00
47753;BME280;2038;51.728;6.674;2023-02-23T01:26:39;100558.50;;;10.77;100.00
47753;BME280;2038;51.728;6.674;2023-02-23T01:29:14;100558.38;;;10.75;100.00
47753;BME280;2038;51.728;6.674;2023-02-23T01:31:45;100552.81;;;10.68;100.00
47753;BME280;2038;51.728;6.674;2023-02-23T01:34:14;100553.88;;;10.71;100.00
47753;BME280;2038;51.728;6.674;2023-02-23T01:36:42;100557.59;;;10.76;100.00
47753;BME280;2038;51.728;6.674;2023-02-23T01:39:13;100561.59;;;10.86;100.00
47753;BME280;2038;51.728;6.674;2023-02-23T01:41:42;100562.69;;;10.90;100.00
47753;BME280;2038;51.728;6.674;2023-02-23T01:46:43;100559.72;;;10.84;100.00
47753;BME280;2038;51.728;6.674;2023-02-23T01:49:20;100558.97;;;10.85;100.00
47753;BME280;2038;51.728;6.674;2023-02-23T01:54:39;100558.78;;;10.82;100.00
47753;BME280;2038;51.728;6.674;2023-02-23T01:57:16;100560.34;;;10.79;100.00
47753;BME280;2038;51.728;6.674;2023-02-23T01:59:47;100555.34;;;10.81;100.00
47753;BME280;2038;51.728;6.674;2023-02-23T02:02:17;100554.09;;;10.74;100.00
47753;BME280;2038;51.728;6.674;2023-02-23T02:04:47;100558.28;;;10.87;100.00
47753;BME280;2038;51.728;6.674;2023-02-23T02:07:25;100556.19;;;10.95;100.00
47753;BME280;2038;51.728;6.674;2023-02-23T02:09:56;100551.03;;;10.80;100.00
47753;BME280;2038;51.728;6.674;2023-02-23T02:12:53;100550.75;;;10.75;100.00
47753;BME280;2038;51.728;6.674;2023-02-23T02:15:22;100556.25;;;10.68;100.00
47753;BME280;2038;51.728;6.674;2023-02-23T02:21:21;100548.31;;;10.64;100.00
47753;BME280;2038;51.728;6.674;2023-02-23T02:24:17;100553.41;;;10.64;100.00
47753;BME280;2038;51.728;6.674;2023-02-23T02:27:20;100556.84;;;10.64;100.00
47753;BME280;2038;51.728;6.674;2023-02-23T02:30:22;100551.16;;;10.68;100.00
47753;BME280;2038;51.728;6.674;2023-02-23T02:36:07;100553.53;;;10.65;100.00
47753;BME280;2038;51.728;6.674;2023-02-23T02:39:09;100554.59;;;10.69;100.00
47753;BME280;2038;51.728;6.674;2023-02-23T02:42:02;100552.75;;;10.66;100.00
47753;BME280;2038;51.728;6.674;2023-02-23T02:44:55;100553.09;;;10.72;100.00
47753;BME280;2038;51.728;6.674;2023-02-23T02:47:47;100554.41;;;10.66;100.00
47753;BME280;2038;51.728;6.674;2023-02-23T02:53:43;100549.50;;;10.56;100.00
47753;BME280;2038;51.728;6.674;2023-02-23T02:56:17;100549.63;;;10.57;100.00
47753;BME280;2038;51.728;6.674;2023-02-23T02:58:47;100548.13;;;10.61;100.00
47753;BME280;2038;51.728;6.674;2023-02-23T03:01:16;100548.31;;;10.64;100.00
47753;BME280;2038;51.728;6.674;2023-02-23T03:04:22;100545.78;;;10.64;100.00
47753;BME280;2038;51.728;6.674;2023-02-23T03:07:22;100551.69;;;10.63;100.00
47753;BME280;2038;51.728;6.674;2023-02-23T03:13:47;100555.47;;;10.69;100.00
47753;BME280;2038;51.728;6.674;2023-02-23T03:17:13;100557.25;;;10.70;100.00
47753;BME280;2038;51.728;6.674;2023-02-23T03:26:20;100556.66;;;10.61;100.00
47753;BME280;2038;51.728;6.674;2023-02-23T03:29:15;100557.75;;;10.65;100.00
47753;BME280;2038;51.728;6.674;2023-02-23T03:38:56;100562.06;;;10.66;100.00
47753;BME280;2038;51.728;6.674;2023-02-23T03:41:48;100565.50;;;10.66;100.00
47753;BME280;2038;51.728;6.674;2023-02-23T03:44:41;100560.28;;;10.65;100.00
47753;BME280;2038;51.728;6.674;2023-02-23T03:47:34;100562.94;;;10.66;100.00
47753;BME280;2038;51.728;6.674;2023-02-23T03:50:40;100565.09;;;10.60;100.00
47753;BME280;2038;51.728;6.674;2023-02-23T03:54:02;100561.31;;;10.54;100.00
47753;BME280;2038;51.728;6.674;2023-02-23T03:56:58;100571.00;;;10.46;100.00
47753;BME280;2038;51.728;6.674;2023-02-23T03:59:52;100567.59;;;10.46;100.00
47753;BME280;2038;51.728;6.674;2023-02-23T04:02:42;100572.97;;;10.37;100.00
47753;BME280;2038;51.728;6.674;2023-02-23T04:05:35;100575.22;;;10.46;100.00
47753;BME280;2038;51.728;6.674;2023-02-23T04:08:29;100577.47;;;10.41;100.00
47753;BME280;2038;51.728;6.674;2023-02-23T04:11:30;100574.53;;;10.48;100.00
47753;BME280;2038;51.728;6.674;2023-02-23T04:14:35;100575.03;;;10.43;100.00
47753;BME280;2038;51.728;6.674;2023-02-23T04:17:09;100576.31;;;10.36;100.00
47753;BME280;2038;51.728;6.674;2023-02-23T04:19:37;100575.63;;;10.39;100.00
47753;BME280;2038;51.728;6.674;2023-02-23T04:22:03;100578.25;;;10.40;100.00
47753;BME280;2038;51.728;6.674;2023-02-23T04:24:29;100578.38;;;10.28;100.00
47753;BME280;2038;51.728;6.674;2023-02-23T04:26:55;100582.78;;;10.31;100.00
47753;BME280;2038;51.728;6.674;2023-02-23T04:29:21;100588.06;;;10.34;100.00
47753;BME280;2038;51.728;6.674;2023-02-23T04:31:48;100579.66;;;10.35;100.00
47753;BME280;2038;51.728;6.674;2023-02-23T04:34:15;100583.28;;;10.25;100.00
47753;BME280;2038;51.728;6.674;2023-02-23T04:36:41;100583.88;;;10.21;100.00
47753;BME280;2038;51.728;6.674;2023-02-23T04:39:07;100587.09;;;10.19;100.00
47753;BME280;2038;51.728;6.674;2023-02-23T04:41:34;100587.38;;;10.23;100.00
47753;BME280;2038;51.728;6.674;2023-02-23T04:44:00;100594.06;;;10.21;100.00
47753;BME280;2038;51.728;6.674;2023-02-23T04:46:26;100591.19;;;10.17;100.00
47753;BME280;2038;51.728;6.674;2023-02-23T04:48:52;100593.84;;;10.18;100.00
47753;BME280;2038;51.728;6.674;2023-02-23T04:51:19;100590.97;;;10.14;100.00
47753;BME280;2038;51.728;6.674;2023-02-23T04:53:45;100587.19;;;10.20;100.00
47753;BME280;2038;51.728;6.674;2023-02-23T04:56:11;100590.88;;;10.12;100.00
47753;BME280;2038;51.728;6.674;2023-02-23T04:58:37;100592.34;;;10.09;100.00
47753;BME280;2038;51.728;6.674;2023-02-23T05:01:08;100591.97;;;10.16;100.00
47753;BME280;2038;51.728;6.674;2023-02-23T05:03:34;100587.25;;;10.09;100.00
47753;BME280;2038;51.728;6.674;2023-02-23T05:06:01;100590.97;;;10.01;100.00
47753;BME280;2038;51.728;6.674;2023-02-23T05:08:27;100585.47;;;10.08;100.00
47753;BME280;2038;51.728;6.674;2023-02-23T05:10:53;100594.88;;;10.09;100.00
47753;BME280;2038;51.728;6.674;2023-02-23T05:13:19;100590.00;;;10.12;100.00
47753;BME280;2038;51.728;6.674;2023-02-23T05:15:46;100594.78;;;10.07;100.00
47753;BME280;2038;51.728;6.674;2023-02-23T05:18:12;100602.84;;;10.13;100.00
47753;BME280;2038;51.728;6.674;2023-02-23T05:20:42;100601.94;;;10.13;100.00
47753;BME280;2038;51.728;6.674;2023-02-23T05:23:11;100598.44;;;10.11;100.00
47753;BME280;2038;51.728;6.674;2023-02-23T05:25:38;100598.22;;;10.08;100.00
47753;BME280;2038;51.728;6.674;2023-02-23T05:28:05;100603.41;;;10.09;100.00
47753;BME280;2038;51.728;6.674;2023-02-23T05:30:32;100597.84;;;10.02;100.00
47753;BME280;2038;51.728;6.674;2023-02-23T05:32:58;100598.59;;;10.01;100.00
47753;BME280;2038;51.728;6.674;2023-02-23T05:35:25;100599.19;;;9.97;100.00
47753;BME280;2038;51.728;6.674;2023-02-23T05:37:51;100599.19;;;9.97;100.00
47753;BME280;2038;51.728;6.674;2023-02-23T05:40:18;100602.94;;;10.02;100.00
47753;BME280;2038;51.728;6.674;2023-02-23T05:42:44;100598.50;;;9.99;100.00
47753;BME280;2038;51.728;6.674;2023-02-23T05:45:10;100602.03;;;10.01;100.00
47753;BME280;2038;51.728;6.674;2023-02-23T05:47:36;100604.47;;;10.00;100.00
47753;BME280;2038;51.728;6.674;2023-02-23T05:50:08;100604.78;;;10.04;100.00
47753;BME280;2038;51.728;6.674;2023-02-23T05:52:39;100604.59;;;10.01;100.00
47753;BME280;2038;51.728;6.674;2023-02-23T05:55:08;100609.19;;;9.94;100.00
47753;BME280;2038;51.728;6.674;2023-02-23T05:57:37;100605.34;;;10.00;100.00
47753;BME280;2038;51.728;6.674;2023-02-23T06:00:05;100608.69;;;9.99;100.00
47753;BME280;2038;51.728;6.674;2023-02-23T06:02:32;100613.50;;;9.95;100.00
47753;BME280;2038;51.728;6.674;2023-02-23T06:04:59;100615.50;;;9.87;100.00
47753;BME280;2038;51.728;6.674;2023-02-23T06:07:25;100617.19;;;9.86;100.00
47753;BME280;2038;51.728;6.674;2023-02-23T06:09:51;100612.47;;;9.79;100.00
47753;BME280;2038;51.728;6.674;2023-02-23T06:12:18;100620.03;;;9.91;100.00
47753;BME280;2038;51.728;6.674;2023-02-23T06:14:44;100622.56;;;9.91;100.00
47753;BME280;2038;51.728;6.674;2023-02-23T06:17:10;100626.00;;;9.92;100.00
47753;BME280;2038;51.728;6.674;2023-02-23T06:19:37;100633.44;;;9.88;100.00
47753;BME280;2038;51.728;6.674;2023-02-23T06:22:03;100629.25;;;9.89;100.00
47753;BME280;2038;51.728;6.674;2023-02-23T06:24:29;100633.56;;;9.90;100.00
47753;BME280;2038;51.728;6.674;2023-02-23T06:26:55;100636.75;;;9.87;100.00
47753;BME280;2038;51.728;6.674;2023-02-23T06:29:21;100640.69;;;9.96;100.00
47753;BME280;2038;51.728;6.674;2023-02-23T06:31:48;100635.22;;;9.90;100.00
47753;BME280;2038;51.728;6.674;2023-02-23T06:34:14;100644.78;;;9.80;100.00
47753;BME280;2038;51.728;6.674;2023-02-23T06:36:40;100644.41;;;9.87;100.00
47753;BME280;2038;51.728;6.674;2023-02-23T06:39:08;100648.09;;;9.79;100.00
47753;BME280;2038;51.728;6.674;2023-02-23T06:41:35;100650.63;;;9.79;100.00
47753;BME280;2038;51.728;6.674;2023-02-23T06:44:02;100657.19;;;9.76;100.00
47753;BME280;2038;51.728;6.674;2023-02-23T06:46:28;100657.88;;;9.73;100.00
47753;BME280;2038;51.728;6.674;2023-02-23T06:48:56;100659.94;;;9.79;100.00
47753;BME280;2038;51.728;6.674;2023-02-23T06:51:23;100657.34;;;9.91;100.00
47753;BME280;2038;51.728;6.674;2023-02-23T06:53:49;100659.09;;;9.92;100.00
47753;BME280;2038;51.728;6.674;2023-02-23T06:56:17;100661.31;;;9.87;100.00
47753;BME280;2038;51.728;6.674;2023-02-23T06:58:44;100659.91;;;9.91;100.00
47753;BME280;2038;51.728;6.674;2023-02-23T07:01:13;100665.75;;;9.90;100.00
47753;BME280;2038;51.728;6.674;2023-02-23T07:03:41;100666.06;;;10.07;100.00
47753;BME280;2038;51.728;6.674;2023-02-23T07:06:07;100667.38;;;10.14;100.00
47753;BME280;2038;51.728;6.674;2023-02-23T07:08:34;100666.38;;;10.12;100.00
47753;BME280;2038;51.728;6.674;2023-02-23T07:11:13;100675.47;;;10.08;100.00
47753;BME280;2038;51.728;6.674;2023-02-23T07:13:40;100672.84;;;10.07;100.00
47753;BME280;2038;51.728;6.674;2023-02-23T07:16:08;100674.72;;;10.09;100.00
47753;BME280;2038;51.728;6.674;2023-02-23T07:18:34;100674.91;;;10.12;100.00
47753;BME280;2038;51.728;6.674;2023-02-23T07:21:01;100680.25;;;10.04;100.00
47753;BME280;2038;51.728;6.674;2023-02-23T07:23:27;100687.63;;;10.12;100.00
47753;BME280;2038;51.728;6.674;2023-02-23T07:25:53;100689.22;;;10.10;100.00
47753;BME280;2038;51.728;6.674;2023-02-23T07:28:21;100690.09;;;10.11;100.00
47753;BME280;2038;51.728;6.674;2023-02-23T07:30:48;100695.38;;;10.14;100.00
47753;BME280;2038;51.728;6.674;2023-02-23T07:33:17;100697.63;;;10.09;100.00
47753;BME280;2038;51.728;6.674;2023-02-23T07:35:43;100697.31;;;10.05;100.00
47753;BME280;2038;51.728;6.674;2023-02-23T07:38:10;100702.22;;;10.02;100.00
47753;BME280;2038;51.728;6.674;2023-02-23T07:40:37;100701.84;;;10.09;100.00
47753;BME280;2038;51.728;6.674;2023-02-23T07:43:04;100698.28;;;10.18;100.00
47753;BME280;2038;51.728;6.674;2023-02-23T07:45:30;100703.69;;;10.11;100.00
47753;BME280;2038;51.728;6.674;2023-02-23T07:47:56;100708.78;;;9.98;100.00
47753;BME280;2038;51.728;6.674;2023-02-23T07:50:23;100709.94;;;10.03;100.00
47753;BME280;2038;51.728;6.674;2023-02-23T07:52:50;100713.28;;;10.02;100.00
47753;BME280;2038;51.728;6.674;2023-02-23T07:55:17;100716.13;;;10.07;100.00
47753;BME280;2038;51.728;6.674;2023-02-23T07:57:43;100724.13;;;10.00;100.00
47753;BME280;2038;51.728;6.674;2023-02-23T08:00:10;100726.22;;;10.05;100.00
47753;BME280;2038;51.728;6.674;2023-02-23T08:02:37;100723.66;;;10.05;100.00
47753;BME280;2038;51.728;6.674;2023-02-23T08:05:04;100734.25;;;10.23;100.00
47753;BME280;2038;51.728;6.674;2023-02-23T08:07:32;100728.38;;;10.12;100.00
47753;BME280;2038;51.728;6.674;2023-02-23T08:09:58;100736.47;;;10.18;100.00
47753;BME280;2038;51.728;6.674;2023-02-23T08:12:25;100743.22;;;10.18;100.00
47753;BME280;2038;51.728;6.674;2023-02-23T08:14:51;100744.34;;;10.10;100.00
47753;BME280;2038;51.728;6.674;2023-02-23T08:17:18;100746.47;;;10.04;100.00
47753;BME280;2038;51.728;6.674;2023-02-23T08:19:45;100755.75;;;10.03;100.00
47753;BME280;2038;51.728;6.674;2023-02-23T08:22:11;100750.66;;;10.03;100.00
47753;BME280;2038;51.728;6.674;2023-02-23T08:24:37;100752.38;;;10.03;100.00
47753;BME280;2038;51.728;6.674;2023-02-23T08:27:04;100752.56;;;10.06;100.00
47753;BME280;2038;51.728;6.674;2023-02-23T08:29:30;100756.19;;;10.09;100.00
47753;BME280;2038;51.728;6.674;2023-02-23T08:31:57;100758.06;;;10.12;100.00
47753;BME280;2038;51.728;6.674;2023-02-23T08:34:23;100753.84;;;10.12;100.00
47753;BME280;2038;51.728;6.674;2023-02-23T08:36:49;100756.19;;;10.09;100.00
47753;BME280;2038;51.728;6.674;2023-02-23T08:39:16;100751.88;;;10.08;100.00
47753;BME280;2038;51.728;6.674;2023-02-23T08:41:42;100748.75;;;10.12;100.00
47753;BME280;2038;51.728;6.674;2023-02-23T08:44:08;100746.66;;;10.18;100.00
47753;BME280;2038;51.728;6.674;2023-02-23T08:46:34;100749.53;;;10.23;100.00
47753;BME280;2038;51.728;6.674;2023-02-23T08:49:01;100753.34;;;10.29;100.00
47753;BME280;2038;51.728;6.674;2023-02-23T08:51:27;100751.00;;;10.32;100.00
47753;BME280;2038;51.728;6.674;2023-02-23T08:53:54;100750.09;;;10.32;100.00
47753;BME280;2038;51.728;6.674;2023-02-23T08:56:22;100746.09;;;10.36;100.00
47753;BME280;2038;51.728;6.674;2023-02-23T08:58:50;100748.75;;;10.37;100.00
47753;BME280;2038;51.728;6.674;2023-02-23T09:01:19;100747.88;;;10.37;100.00
47753;BME280;2038;51.728;6.674;2023-02-23T09:03:46;100746.59;;;10.43;100.00
47753;BME280;2038;51.728;6.674;2023-02-23T09:06:17;100751.59;;;10.42;100.00
47753;BME280;2038;51.728;6.674;2023-02-23T09:08:44;100747.16;;;10.39;100.00
47753;BME280;2038;51.728;6.674;2023-02-23T09:11:11;100755.81;;;10.41;100.00
47753;BME280;2038;51.728;6.674;2023-02-23T09:13:37;100761.88;;;10.43;100.00
47753;BME280;2038;51.728;6.674;2023-02-23T09:16:04;100768.44;;;10.40;100.00
47753;BME280;2038;51.728;6.674;2023-02-23T09:18:32;100769.31;;;10.40;100.00
47753;BME280;2038;51.728;6.674;2023-02-23T09:21:01;100771.69;;;10.37;100.00
47753;BME280;2038;51.728;6.674;2023-02-23T09:23:32;100776.66;;;10.36;100.00
47753;BME280;2038;51.728;6.674;2023-02-23T09:26:04;100776.53;;;10.21;100.00
47753;BME280;2038;51.728;6.674;2023-02-23T09:28:32;100783.41;;;10.22;100.00
47753;BME280;2038;51.728;6.674;2023-02-23T09:31:10;100790.94;;;10.20;100.00
47753;BME280;2038;51.728;6.674;2023-02-23T09:33:39;100793.81;;;10.13;100.00
47753;BME280;2038;51.728;6.674;2023-02-23T09:36:10;100797.81;;;10.10;100.00
47753;BME280;2038;51.728;6.674;2023-02-23T09:38:41;100806.34;;;10.10;100.00
47753;BME280;2038;51.728;6.674;2023-02-23T09:45:13;100803.56;;;10.07;100.00
47753;BME280;2038;51.728;6.674;2023-02-23T09:47:44;100809.16;;;10.02;100.00
47753;BME280;2038;51.728;6.674;2023-02-23T09:50:34;100807.31;;;10.12;100.00
47753;BME280;2038;51.728;6.674;2023-02-23T09:55:50;100812.31;;;10.22;100.00
47753;BME280;2038;51.728;6.674;2023-02-23T09:58:27;100813.38;;;10.26;100.00
47753;BME280;2038;51.728;6.674;2023-02-23T10:03:56;100819.13;;;10.23;100.00
47753;BME280;2038;51.728;6.674;2023-02-23T10:06:30;100820.91;;;10.24;100.00
47753;BME280;2038;51.728;6.674;2023-02-23T10:09:14;100814.59;;;10.31;100.00
47753;BME280;2038;51.728;6.674;2023-02-23T10:15:07;100816.84;;;10.40;100.00
47753;BME280;2038;51.728;6.674;2023-02-23T10:18:00;100827.53;;;10.34;100.00
47753;BME280;2038;51.728;6.674;2023-02-23T10:23:59;100820.78;;;10.35;100.00
47753;BME280;2038;51.728;6.674;2023-02-23T10:26:45;100825.56;;;10.30;100.00
47753;BME280;2038;51.728;6.674;2023-02-23T10:29:29;100822.38;;;10.21;100.00
47753;BME280;2038;51.728;6.674;2023-02-23T10:32:23;100819.50;;;10.16;100.00
47753;BME280;2038;51.728;6.674;2023-02-23T10:35:16;100815.94;;;10.26;100.00
47753;BME280;2038;51.728;6.674;2023-02-23T10:37:47;100819.00;;;10.33;100.00
47753;BME280;2038;51.728;6.674;2023-02-23T10:40:24;100822.63;;;10.37;100.00
47753;BME280;2038;51.728;6.674;2023-02-23T10:42:54;100823.41;;;10.36;100.00
47753;BME280;2038;51.728;6.674;2023-02-23T10:45:24;100819.97;;;10.36;100.00
47753;BME280;2038;51.728;6.674;2023-02-23T10:48:07;100819.13;;;10.35;100.00
47753;BME280;2038;51.728;6.674;2023-02-23T10:50:55;100819.19;;;10.37;100.00
47753;BME280;2038;51.728;6.674;2023-02-23T10:53:42;100820.47;;;10.43;100.00
47753;BME280;2038;51.728;6.674;2023-02-23T10:56:14;100822.50;;;10.36;100.00
47753;BME280;2038;51.728;6.674;2023-02-23T10:58:54;100822.16;;;10.43;100.00
47753;BME280;2038;51.728;6.674;2023-02-23T11:01:42;100829.22;;;10.47;100.00
47753;BME280;2038;51.728;6.674;2023-02-23T11:04:31;100828.75;;;10.52;100.00
47753;BME280;2038;51.728;6.674;2023-02-23T11:07:23;100836.59;;;10.55;100.00
47753;BME280;2038;51.728;6.674;2023-02-23T11:09:59;100840.25;;;10.72;100.00
47753;BME280;2038;51.728;6.674;2023-02-23T11:12:57;100842.63;;;10.82;100.00
47753;BME280;2038;51.728;6.674;2023-02-23T11:15:31;100848.47;;;10.68;100.00
47753;BME280;2038;51.728;6.674;2023-02-23T11:18:18;100842.22;;;10.63;100.00
47753;BME280;2038;51.728;6.674;2023-02-23T11:20:55;100834.84;;;10.54;100.00
47753;BME280;2038;51.728;6.674;2023-02-23T11:23:30;100837.78;;;10.60;100.00
47753;BME280;2038;51.728;6.674;2023-02-23T11:26:50;100838.84;;;10.64;100.00
47753;BME280;2038;51.728;6.674;2023-02-23T11:29:01;100844.00;;;10.77;100.00
47753;BME280;2038;51.728;6.674;2023-02-23T11:31:51;100840.16;;;10.70;100.00
47753;BME280;2038;51.728;6.674;2023-02-23T11:34:35;100839.66;;;10.76;100.00
47753;BME280;2038;51.728;6.674;2023-02-23T11:39:54;100845.06;;;10.80;100.00
47753;BME280;2038;51.728;6.674;2023-02-23T11:42:52;100835.06;;;10.84;100.00
47753;BME280;2038;51.728;6.674;2023-02-23T11:45:50;100835.59;;;11.04;100.00
47753;BME280;2038;51.728;6.674;2023-02-23T11:48:39;100831.75;;;10.85;100.00
47753;BME280;2038;51.728;6.674;2023-02-23T11:51:39;100823.72;;;10.78;100.00
47753;BME280;2038;51.728;6.674;2023-02-23T11:54:27;100827.34;;;11.08;100.00
47753;BME280;2038;51.728;6.674;2023-02-23T11:57:00;100819.59;;;10.94;100.00
47753;BME280;2038;51.728;6.674;2023-02-23T11:59:34;100824.69;;;10.94;100.00
47753;BME280;2038;51.728;6.674;2023-02-23T12:05:16;100819.69;;;10.82;100.00
47753;BME280;2038;51.728;6.674;2023-02-23T12:08:05;100831.13;;;10.75;100.00
47753;BME280;2038;51.728;6.674;2023-02-23T12:10:42;100824.88;;;10.84;100.00
47753;BME280;2038;51.728;6.674;2023-02-23T12:13:25;100822.25;;;10.82;100.00
47753;BME280;2038;51.728;6.674;2023-02-23T12:16:25;100833.31;;;10.69;100.00
47753;BME280;2038;51.728;6.674;2023-02-23T12:22:10;100840.94;;;10.69;100.00
47753;BME280;2038;51.728;6.674;2023-02-23T12:28:31;100835.97;;;10.71;100.00
47753;BME280;2038;51.728;6.674;2023-02-23T12:34:04;100834.56;;;10.76;100.00
47753;BME280;2038;51.728;6.674;2023-02-23T12:36:48;100828.50;;;10.74;100.00
47753;BME280;2038;51.728;6.674;2023-02-23T12:39:39;100835.47;;;10.76;100.00
47753;BME280;2038;51.728;6.674;2023-02-23T12:45:42;100830.94;;;10.72;100.00
47753;BME280;2038;51.728;6.674;2023-02-23T12:48:41;100833.69;;;10.75;100.00
47753;BME280;2038;51.728;6.674;2023-02-23T12:51:35;100829.16;;;10.71;100.00
47753;BME280;2038;51.728;6.674;2023-02-23T12:54:10;100833.09;;;10.66;100.00
47753;BME280;2038;51.728;6.674;2023-02-23T13:11:26;100831.72;;;10.71;100.00
47753;BME280;2038;51.728;6.674;2023-02-23T13:14:46;100831.28;;;10.52;100.00
47753;BME280;2038;51.728;6.674;2023-02-23T13:18:01;100837.97;;;10.50;100.00
47753;BME280;2038;51.728;6.674;2023-02-23T13:21:07;100838.03;;;10.52;100.00
47753;BME280;2038;51.728;6.674;2023-02-23T13:26:46;100839.47;;;10.73;100.00
47753;BME280;2038;51.728;6.674;2023-02-23T13:29:52;100834.19;;;10.70;100.00
47753;BME280;2038;51.728;6.674;2023-02-23T13:32:38;100832.19;;;10.53;100.00
47753;BME280;2038;51.728;6.674;2023-02-23T13:35:35;100837.28;;;10.53;100.00
47753;BME280;2038;51.728;6.674;2023-02-23T13:52:07;100831.16;;;10.89;100.00
47753;BME280;2038;51.728;6.674;2023-02-23T13:54:58;100818.91;;;10.96;100.00
47753;BME280;2038;51.728;6.674;2023-02-23T13:57:32;100821.88;;;11.02;100.00
47753;BME280;2038;51.728;6.674;2023-02-23T14:00:19;100818.72;;;11.06;100.00
47753;BME280;2038;51.728;6.674;2023-02-23T14:02:59;100819.88;;;11.11;100.00
47753;BME280;2038;51.728;6.674;2023-02-23T14:05:42;100826.84;;;11.01;100.00
47753;BME280;2038;51.728;6.674;2023-02-23T14:08:25;100815.38;;;10.94;100.00
47753;BME280;2038;51.728;6.674;2023-02-23T14:11:04;100815.47;;;10.83;100.00
47753;BME280;2038;51.728;6.674;2023-02-23T14:13:33;100816.16;;;10.80;100.00
47753;BME280;2038;51.728;6.674;2023-02-23T14:22:02;100827.69;;;10.62;100.00
47753;BME280;2038;51.728;6.674;2023-02-23T14:24:34;100825.81;;;10.59;100.00
47753;BME280;2038;51.728;6.674;2023-02-23T14:27:17;100831.31;;;10.65;100.00
47753;BME280;2038;51.728;6.674;2023-02-23T14:32:44;100830.31;;;10.50;100.00
47753;BME280;2038;51.728;6.674;2023-02-23T14:38:21;100826.22;;;10.65;100.00
47753;BME280;2038;51.728;6.674;2023-02-23T14:40:55;100823.94;;;10.57;100.00
47753;BME280;2038;51.728;6.674;2023-02-23T14:43:32;100823.91;;;10.44;100.00
47753;BME280;2038;51.728;6.674;2023-02-23T14:46:20;100822.06;;;10.41;100.00
47753;BME280;2038;51.728;6.674;2023-02-23T14:48:58;100833.44;;;10.46;100.00
47753;BME280;2038;51.728;6.674;2023-02-23T14:51:41;100833.75;;;10.51;100.00
47753;BME280;2038;51.728;6.674;2023-02-23T14:54:35;100844.16;;;10.54;100.00
47753;BME280;2038;51.728;6.674;2023-02-23T14:57:15;100844.03;;;10.52;100.00
47753;BME280;2038;51.728;6.674;2023-02-23T14:59:59;100847.84;;;10.46;100.00
47753;BME280;2038;51.728;6.674;2023-02-23T15:02:28;100850.97;;;10.42;100.00
47753;BME280;2038;51.728;6.674;2023-02-23T15:04:55;100849.50;;;10.45;100.00
47753;BME280;2038;51.728;6.674;2023-02-23T15:07:39;100852.81;;;10.44;100.00
47753;BME280;2038;51.728;6.674;2023-02-23T15:10:15;100847.91;;;10.34;100.00
47753;BME280;2038;51.728;6.674;2023-02-23T15:12:46;100844.03;;;10.27;100.00
47753;BME280;2038;51.728;6.674;2023-02-23T15:15:17;100850.72;;;10.25;100.00
47753;BME280;2038;51.728;6.674;2023-02-23T15:17:48;100850.84;;;10.15;100.00
47753;BME280;2038;51.728;6.674;2023-02-23T15:20:20;100850.00;;;10.15;100.00
47753;BME280;2038;51.728;6.674;2023-02-23T15:22:54;100850.41;;;10.21;100.00